Time;durP1;ratioP1;P1;durP2;ratioP2;P2;SDS_P1;SDS_P2;PMS_P1;PMS_P2;Temp;Humidity;BMP_temperature;BMP_pressure;BME280_temperature;BME280_humidity;BME280_pressure;Samples;Min_cycle;Max_cycle;Signal;HPM_P1;HPM_P2
2024/01/13 00:01:30;;;;;;;;;;;;;;;-0.54;63.91;99757.75;4420321;32;34853;-92
2024/01/13 00:03:58;;;;;;;;;;;;;;;-0.87;64.92;99764.91;4420421;32;33995;-91
2024/01/13 00:06:25;;;;;;;;;;;;;;;-0.82;64.33;99766.09;4419946;32;32978;-91
2024/01/13 00:08:53;;;;;;;;;;;;;;;-0.50;63.38;99755.50;4420159;32;34913;-91
2024/01/13 00:11:20;;;;;;;;;;;;;;;-0.78;64.21;99762.09;4420196;32;34260;-91
2024/01/13 00:13:48;;;;;;;;;;;;;;;-0.93;64.38;99763.63;4420018;32;35110;-92
2024/01/13 00:16:15;;;;;;;;;;;;;;;-1.00;64.51;99755.56;4420083;32;33579;-92
2024/01/13 00:18:43;;;;;;;;;;;;;;;-1.15;64.91;99761.28;4415674;32;34216;-91
2024/01/13 00:21:10;;;;;;;;;;;;;;;-1.50;66.06;99752.09;4404986;32;33943;-92
2024/01/13 00:23:39;;;;;;;;;;;;;;;-1.12;64.87;99749.66;4415011;32;34242;-92
2024/01/13 00:26:07;;;;;;;;;;;;;;;-1.26;65.46;99755.44;4419988;32;33448;-92
2024/01/13 00:28:34;;;;;;;;;;;;;;;-1.16;65.20;99755.31;4417542;32;33887;-90
2024/01/13 00:31:04;;;;;;;;;;;;;;;-1.14;65.21;99757.94;4422216;32;34336;-93
2024/01/13 00:33:33;;;;;;;;;;;;;;;-0.61;63.32;99765.75;4421834;32;34378;-87
2024/01/13 00:36:01;;;;;;;;;;;;;;;-0.68;63.24;99759.41;4421883;32;34097;-91
2024/01/13 00:38:28;;;;;;;;;;;;;;;-0.98;63.75;99766.75;4421761;32;34150;-92
2024/01/13 00:41:06;;;;;;;;;;;;;;;-0.86;63.34;99771.78;4421037;32;34027;-92
2024/01/13 00:43:39;;;;;;;;;;;;;;;-0.76;63.42;99776.72;4421258;32;34393;-91
2024/01/13 00:46:07;;;;;;;;;;;;;;;-1.01;64.14;99769.06;4420963;32;33445;-92
2024/01/13 00:48:36;;;;;;;;;;;;;;;-0.54;62.70;99763.72;4407701;32;34137;-87
2024/01/13 00:51:09;;;;;;;;;;;;;;;-1.16;64.30;99757.84;4422257;32;34542;-89
2024/01/13 00:53:38;;;;;;;;;;;;;;;-0.72;63.45;99752.31;4406919;32;34388;-91
2024/01/13 00:56:07;;;;;;;;;;;;;;;-0.98;64.43;99758.22;4406421;32;33235;-89
2024/01/13 00:58:36;;;;;;;;;;;;;;;-0.77;63.62;99758.75;4420356;32;34946;-92
2024/01/13 01:01:23;;;;;;;;;;;;;;;-0.47;62.79;99769.22;4420057;32;34258;-92
2024/01/13 01:03:51;;;;;;;;;;;;;;;-0.79;63.84;99767.97;4421153;32;33999;-90
2024/01/13 01:06:19;;;;;;;;;;;;;;;-0.60;62.87;99770.09;4421205;32;33088;-92
2024/01/13 01:08:46;;;;;;;;;;;;;;;-0.75;63.63;99775.91;4419592;32;33348;-91
2024/01/13 01:11:14;;;;;;;;;;;;;;;-0.69;63.07;99767.78;4420230;32;34861;-91
2024/01/13 01:13:41;;;;;;;;;;;;;;;-0.37;62.70;99761.41;4421153;32;34374;-91
2024/01/13 01:16:09;;;;;;;;;;;;;;;-0.52;62.69;99759.63;4421224;32;33955;-91
2024/01/13 01:18:37;;;;;;;;;;;;;;;-1.29;64.99;99762.84;4420335;32;34756;-90
2024/01/13 01:21:12;;;;;;;;;;;;;;;-0.68;63.46;99761.94;4421647;32;33961;-91
2024/01/13 01:23:42;;;;;;;;;;;;;;;-1.09;64.40;99762.59;4419293;32;35117;-90
2024/01/13 01:26:09;;;;;;;;;;;;;;;-1.05;63.93;99756.91;4420006;32;33662;-90
2024/01/13 01:28:37;;;;;;;;;;;;;;;-1.08;64.41;99766.88;4406100;32;34423;-90
2024/01/13 01:31:04;;;;;;;;;;;;;;;-1.00;63.84;99760.66;4420254;32;34140;-89
2024/01/13 01:33:33;;;;;;;;;;;;;;;-0.95;64.02;99760.94;4415334;32;34440;-92
2024/01/13 01:36:01;;;;;;;;;;;;;;;-0.78;63.36;99768.06;4419877;32;34529;-85
2024/01/13 01:38:28;;;;;;;;;;;;;;;-0.64;63.09;99746.09;4416284;32;34945;-91
2024/01/13 01:41:09;;;;;;;;;;;;;;;-1.01;63.88;99743.63;4420027;32;34255;-93
2024/01/13 01:43:36;;;;;;;;;;;;;;;-1.02;64.35;99741.00;4421892;32;34433;-89
2024/01/13 01:46:04;;;;;;;;;;;;;;;-0.95;64.41;99747.34;4430626;32;34273;-92
2024/01/13 01:48:42;;;;;;;;;;;;;;;-0.86;63.51;99725.94;4436479;32;34049;-91
2024/01/13 01:51:16;;;;;;;;;;;;;;;-0.78;63.64;99726.47;4421990;32;34866;-87
2024/01/13 01:53:45;;;;;;;;;;;;;;;-0.78;63.23;99726.47;4436968;32;34189;-92
2024/01/13 01:56:18;;;;;;;;;;;;;;;-1.21;64.65;99721.06;4422401;32;33179;-93
2024/01/13 01:58:46;;;;;;;;;;;;;;;-1.32;64.99;99716.91;4427491;32;34077;-88
2024/01/13 02:01:14;;;;;;;;;;;;;;;-0.75;63.49;99712.28;4435687;32;34481;-92
2024/01/13 02:03:41;;;;;;;;;;;;;;;-1.12;64.58;99702.97;4422532;32;34470;-88
2024/01/13 02:06:09;;;;;;;;;;;;;;;-1.16;64.43;99714.59;4435868;32;34520;-91
2024/01/13 02:08:37;;;;;;;;;;;;;;;-1.02;64.16;99710.44;4436210;32;34943;-90
2024/01/13 02:11:10;;;;;;;;;;;;;;;-1.00;64.04;99702.13;4421817;32;33988;-85
2024/01/13 02:13:39;;;;;;;;;;;;;;;-0.99;63.69;99708.09;4436605;32;35673;-91
2024/01/13 02:16:06;;;;;;;;;;;;;;;-1.05;64.13;99706.03;4436134;32;33623;-87
2024/01/13 02:18:34;;;;;;;;;;;;;;;-0.56;62.78;99688.00;4435157;32;33126;-92
2024/01/13 02:21:08;;;;;;;;;;;;;;;-0.38;61.73;99699.41;4436351;32;34221;-91
2024/01/13 02:23:36;;;;;;;;;;;;;;;-0.71;62.82;99698.09;4435632;32;35679;-92
2024/01/13 02:26:03;;;;;;;;;;;;;;;-0.68;63.24;99695.75;4435975;32;32749;-93
2024/01/13 02:28:31;;;;;;;;;;;;;;;-0.60;62.73;99686.94;4432103;32;34954;-89
2024/01/13 02:31:18;;;;;;;;;;;;;;;-0.59;62.05;99693.78;4435437;32;34154;-92
2024/01/13 02:33:52;;;;;;;;;;;;;;;-0.58;62.87;99700.62;4429560;32;35028;-91
2024/01/13 02:36:23;;;;;;;;;;;;;;;-0.73;63.10;99709.81;4424695;32;33261;-92
2024/01/13 02:38:52;;;;;;;;;;;;;;;-0.89;63.56;99713.00;4436655;32;35374;-86
2024/01/13 02:41:20;;;;;;;;;;;;;;;-1.04;64.25;99712.88;4421430;32;34354;-86
2024/01/13 02:43:48;;;;;;;;;;;;;;;-0.89;64.04;99707.03;4424553;32;34031;-91
2024/01/13 02:46:15;;;;;;;;;;;;;;;-0.86;63.60;99705.59;4434948;32;34419;-91
2024/01/13 02:48:45;;;;;;;;;;;;;;;-0.37;62.18;99697.72;4436072;32;34742;-90
2024/01/13 02:51:16;;;;;;;;;;;;;;;-0.06;61.39;99693.78;4435566;32;35319;-90
2024/01/13 02:53:45;;;;;;;;;;;;;;;-0.26;61.70;99689.09;4421974;32;34622;-89
2024/01/13 02:56:13;;;;;;;;;;;;;;;-0.33;61.87;99698.00;4435466;32;33668;-87
2024/01/13 02:58:40;;;;;;;;;;;;;;;-0.73;63.22;99692.00;4435873;32;33934;-91
2024/01/13 03:01:13;;;;;;;;;;;;;;;-0.90;63.62;99688.34;4430776;32;35226;-92
2024/01/13 03:03:42;;;;;;;;;;;;;;;-0.65;63.50;99677.22;4428591;32;35066;-91
2024/01/13 03:06:10;;;;;;;;;;;;;;;-0.62;63.10;99668.09;4436124;32;33595;-92
2024/01/13 03:08:38;;;;;;;;;;;;;;;-0.64;62.93;99673.91;4435747;32;34856;-90
2024/01/13 03:11:10;;;;;;;;;;;;;;;-0.75;63.56;99661.34;4436475;32;34280;-91
2024/01/13 03:13:37;;;;;;;;;;;;;;;-0.76;63.88;99666.31;4421787;32;34381;-90
2024/01/13 03:16:06;;;;;;;;;;;;;;;-1.02;64.70;99660.44;4434827;32;33273;-92
2024/01/13 03:18:34;;;;;;;;;;;;;;;-0.69;63.70;99655.75;4422856;32;34531;-93
2024/01/13 03:21:08;;;;;;;;;;;;;;;-0.18;61.98;99649.69;4421050;32;34376;-86
2024/01/13 03:23:36;;;;;;;;;;;;;;;-0.25;61.69;99650.09;4421335;32;34991;-90
2024/01/13 03:26:03;;;;;;;;;;;;;;;-0.25;61.89;99653.50;4436048;32;33815;-91
2024/01/13 03:28:31;;;;;;;;;;;;;;;-0.83;63.87;99654.00;4421814;32;33816;-90
2024/01/13 03:31:11;;;;;;;;;;;;;;;-0.55;63.18;99655.00;4435415;32;34371;-89
2024/01/13 03:33:42;;;;;;;;;;;;;;;-0.04;61.60;99653.09;4435006;32;34610;-91
2024/01/13 03:36:10;;;;;;;;;;;;;;;-0.89;63.85;99658.69;4436864;32;33378;-94
2024/01/13 03:38:39;;;;;;;;;;;;;;;-0.67;63.89;99654.22;4436974;32;34246;-93
2024/01/13 03:41:11;;;;;;;;;;;;;;;-0.77;64.13;99654.38;4432115;32;34905;-94
2024/01/13 03:43:40;;;;;;;;;;;;;;;-0.25;62.38;99650.09;4419606;32;35154;-93
2024/01/13 03:46:07;;;;;;;;;;;;;;;-0.17;61.70;99653.13;4420729;32;33960;-90
2024/01/13 03:48:35;;;;;;;;;;;;;;;-0.40;62.74;99638.94;4420504;32;34029;-90
2024/01/13 03:51:02;;;;;;;;;;;;;;;-0.73;63.64;99646.16;4430362;32;34189;-90
2024/01/13 03:53:32;;;;;;;;;;;;;;;-0.09;62.05;99637.50;4435388;32;35059;-89
2024/01/13 03:56:01;;;;;;;;;;;;;;;-0.46;62.97;99636.84;4434988;32;33352;-90
2024/01/13 03:58:28;;;;;;;;;;;;;;;0.07;61.45;99639.34;4419359;32;34065;-89
2024/01/13 04:00:56;;;;;;;;;;;;;;;-0.34;62.35;99644.41;4434522;32;34586;-89
2024/01/13 04:03:23;;;;;;;;;;;;;;;-0.70;63.80;99642.94;4435346;32;34831;-88
2024/01/13 04:05:51;;;;;;;;;;;;;;;-0.06;61.82;99639.38;4437268;32;33400;-90
2024/01/13 04:08:18;;;;;;;;;;;;;;;-0.52;63.70;99641.59;4437056;32;35270;-92
2024/01/13 04:10:46;;;;;;;;;;;;;;;-0.13;62.11;99635.56;4421925;32;33830;-90
2024/01/13 04:13:13;;;;;;;;;;;;;;;-0.83;64.35;99639.62;4437666;32;35061;-89
2024/01/13 04:15:40;;;;;;;;;;;;;;;-0.43;63.17;99626.87;4422549;32;34137;-92
2024/01/13 04:18:08;;;;;;;;;;;;;;;-0.95;65.25;99640.47;4437397;32;34138;-91
2024/01/13 04:20:36;;;;;;;;;;;;;;;-0.60;64.40;99630.03;4423908;32;34380;-91
2024/01/13 04:23:03;;;;;;;;;;;;;;;-0.29;63.44;99627.75;4437753;32;34974;-91
2024/01/13 04:25:31;;;;;;;;;;;;;;;-0.22;63.14;99629.91;4436695;32;33435;-92
2024/01/13 04:28:01;;;;;;;;;;;;;;;-0.33;63.44;99623.25;4436406;32;33951;-91
2024/01/13 04:30:29;;;;;;;;;;;;;;;-0.46;63.88;99623.25;4436372;32;35152;-92
2024/01/13 04:32:57;;;;;;;;;;;;;;;-0.52;64.48;99629.72;4437354;32;35003;-86
2024/01/13 04:35:26;;;;;;;;;;;;;;;-0.12;63.01;99637.31;4423715;32;33986;-93
2024/01/13 04:37:54;;;;;;;;;;;;;;;-0.44;64.13;99616.59;4422979;32;35102;-88
2024/01/13 04:40:33;;;;;;;;;;;;;;;-0.56;64.72;99626.91;4411559;32;33608;-89
2024/01/13 04:43:00;;;;;;;;;;;;;;;-0.28;63.86;99621.88;4436975;32;34344;-92
2024/01/13 04:45:28;;;;;;;;;;;;;;;-0.61;64.79;99618.94;4437053;32;33264;-90
2024/01/13 04:47:56;;;;;;;;;;;;;;;-0.41;64.03;99619.34;4435514;32;34007;-91
2024/01/13 04:50:24;;;;;;;;;;;;;;;-0.35;63.94;99606.97;4421694;32;34194;-88
2024/01/13 04:52:52;;;;;;;;;;;;;;;-0.35;63.94;99614.63;4436403;32;34570;-90
2024/01/13 04:55:19;;;;;;;;;;;;;;;-0.30;64.02;99601.41;4421939;32;33322;-90
2024/01/13 04:57:47;;;;;;;;;;;;;;;0.10;62.98;99603.84;4436428;32;33743;-90
2024/01/13 05:00:15;;;;;;;;;;;;;;;0.28;61.80;99603.22;4436263;32;35205;-88
2024/01/13 05:02:42;;;;;;;;;;;;;;;-0.07;62.94;99605.37;4431221;32;34029;-90
2024/01/13 05:05:21;;;;;;;;;;;;;;;-0.01;62.92;99600.62;4429878;32;33613;-87
2024/01/13 05:07:48;;;;;;;;;;;;;;;-0.67;65.35;99603.28;4430479;32;33112;-91
2024/01/13 05:10:15;;;;;;;;;;;;;;;0.03;63.14;99603.38;4435638;32;34353;-92
2024/01/13 05:12:42;;;;;;;;;;;;;;;-0.56;64.98;99598.88;4436332;32;34341;-87
2024/01/13 05:15:10;;;;;;;;;;;;;;;-0.58;65.02;99596.22;4436000;32;32489;-86
2024/01/13 05:17:37;;;;;;;;;;;;;;;-0.07;63.05;99590.09;4435951;32;34171;-88
2024/01/13 05:20:05;;;;;;;;;;;;;;;-0.39;64.76;99599.94;4426634;32;34308;-84
2024/01/13 05:22:33;;;;;;;;;;;;;;;-0.31;64.11;99588.56;4420924;32;34039;-90
2024/01/13 05:25:00;;;;;;;;;;;;;;;-0.21;64.14;99583.25;4419817;32;33105;-92
2024/01/13 05:27:28;;;;;;;;;;;;;;;-0.20;63.87;99585.00;4422732;32;34944;-88
2024/01/13 05:29:56;;;;;;;;;;;;;;;-0.17;63.83;99587.75;4433897;32;33729;-92
2024/01/13 05:32:23;;;;;;;;;;;;;;;-0.64;65.08;99572.94;4435354;32;35727;-92
2024/01/13 05:34:50;;;;;;;;;;;;;;;-0.70;65.84;99582.72;4435555;32;34213;-91
2024/01/13 05:37:18;;;;;;;;;;;;;;;-0.60;65.42;99584.19;4436213;32;34489;-87
2024/01/13 05:39:45;;;;;;;;;;;;;;;-0.47;64.96;99575.66;4435509;32;34388;-93
2024/01/13 05:42:12;;;;;;;;;;;;;;;-0.64;65.79;99577.16;4435780;32;34987;-88
2024/01/13 05:44:40;;;;;;;;;;;;;;;-0.86;66.44;99574.91;4408147;32;904668;-88
2024/01/13 05:47:09;;;;;;;;;;;;;;;-0.74;66.40;99568.03;4436437;32;34676;-90
2024/01/13 05:49:36;;;;;;;;;;;;;;;-1.02;67.17;99562.84;4421744;32;34766;-92
2024/01/13 05:52:04;;;;;;;;;;;;;;;-0.62;66.27;99566.25;4436442;32;34333;-92
2024/01/13 05:54:31;;;;;;;;;;;;;;;-0.45;65.85;99561.38;4435521;32;33483;-93
2024/01/13 05:56:59;;;;;;;;;;;;;;;-0.70;66.26;99567.44;4423038;32;32802;-91
2024/01/13 05:59:27;;;;;;;;;;;;;;;-0.50;65.77;99579.75;4423345;32;34978;-93
2024/01/13 06:01:54;;;;;;;;;;;;;;;-0.50;66.07;99589.06;4436564;32;35371;-92
2024/01/13 06:04:22;;;;;;;;;;;;;;;-0.31;65.40;99586.00;4437464;32;33216;-92
2024/01/13 06:06:49;;;;;;;;;;;;;;;-0.30;65.58;99585.25;4435923;32;34516;-91
2024/01/13 06:09:18;;;;;;;;;;;;;;;-0.07;64.73;99600.28;4422947;32;33708;-91
2024/01/13 06:11:45;;;;;;;;;;;;;;;-0.06;65.30;99596.94;4436743;32;35085;-93
2024/01/13 06:14:12;;;;;;;;;;;;;;;0.03;65.09;99586.41;4434726;32;35152;-94
2024/01/13 06:16:40;;;;;;;;;;;;;;;0.15;64.19;99584.63;4437183;32;33734;-92
2024/01/13 06:19:07;;;;;;;;;;;;;;;0.28;64.45;99583.69;4436654;32;34727;-90
2024/01/13 06:21:42;;;;;;;;;;;;;;;0.07;64.96;99582.37;4434069;32;34426;-91
2024/01/13 06:24:10;;;;;;;;;;;;;;;0.44;63.63;99588.91;4434262;32;34323;-91
2024/01/13 06:26:39;;;;;;;;;;;;;;;-0.15;66.05;99585.28;4429392;32;33950;-87
2024/01/13 06:29:06;;;;;;;;;;;;;;;0.02;65.09;99588.87;4436904;32;34588;-87
2024/01/13 06:31:34;;;;;;;;;;;;;;;0.44;64.40;99594.00;4421897;32;35172;-91
2024/01/13 06:34:01;;;;;;;;;;;;;;;0.61;63.49;99600.13;4436558;32;33249;-90
2024/01/13 06:36:29;;;;;;;;;;;;;;;0.84;62.55;99590.37;4436400;32;34054;-87
2024/01/13 06:38:56;;;;;;;;;;;;;;;0.35;64.43;99590.91;4435466;32;35770;-91
2024/01/13 06:41:24;;;;;;;;;;;;;;;0.68;63.61;99580.91;4435481;32;33658;-91
2024/01/13 06:43:51;;;;;;;;;;;;;;;0.81;63.18;99573.19;4432744;32;34176;-90
2024/01/13 06:46:19;;;;;;;;;;;;;;;0.94;62.68;99577.31;4431809;32;34822;-90
2024/01/13 06:48:46;;;;;;;;;;;;;;;0.94;62.70;99574.75;4432605;32;33504;-91
2024/01/13 06:51:14;;;;;;;;;;;;;;;0.81;63.01;99577.41;4427876;32;34386;-87
2024/01/13 06:53:42;;;;;;;;;;;;;;;1.23;61.64;99576.41;4420056;32;33671;-90
2024/01/13 06:56:12;;;;;;;;;;;;;;;0.73;63.06;99574.44;4431267;32;34170;-88
2024/01/13 06:58:39;;;;;;;;;;;;;;;1.65;60.59;99579.59;4434953;32;34554;-88
2024/01/13 07:01:06;;;;;;;;;;;;;;;1.30;61.46;99580.22;4434015;32;34977;-91
2024/01/13 07:03:34;;;;;;;;;;;;;;;1.39;61.44;99576.47;4433650;32;33251;-90
2024/01/13 07:06:01;;;;;;;;;;;;;;;1.04;63.14;99578.75;4435826;32;34017;-92
2024/01/13 07:08:29;;;;;;;;;;;;;;;1.50;61.67;99582.19;4435139;32;34395;-90
2024/01/13 07:10:56;;;;;;;;;;;;;;;1.39;62.35;99578.16;4436143;32;34071;-92
2024/01/13 07:13:23;;;;;;;;;;;;;;;1.41;61.99;99577.44;4435813;32;34204;-90
2024/01/13 07:15:51;;;;;;;;;;;;;;;1.45;62.13;99574.28;4436154;32;34021;-85
2024/01/13 07:18:18;;;;;;;;;;;;;;;1.70;61.66;99580.72;4434458;32;33577;-90
2024/01/13 07:20:45;;;;;;;;;;;;;;;1.91;61.16;99570.78;4436459;32;34412;-91
2024/01/13 07:23:13;;;;;;;;;;;;;;;1.55;62.46;99582.44;4417698;32;33121;-86
2024/01/13 07:25:40;;;;;;;;;;;;;;;1.30;63.22;99575.97;4436197;32;34134;-90
2024/01/13 07:28:07;;;;;;;;;;;;;;;1.16;63.74;99580.28;4434023;32;34435;-86
2024/01/13 07:30:35;;;;;;;;;;;;;;;1.80;62.04;99572.75;4432192;32;34297;-89
2024/01/13 07:33:02;;;;;;;;;;;;;;;1.35;63.42;99569.44;4434616;32;33466;-89
2024/01/13 07:35:30;;;;;;;;;;;;;;;1.22;63.63;99561.91;4430449;32;33287;-88
2024/01/13 07:37:57;;;;;;;;;;;;;;;1.51;62.92;99555.81;4430171;32;35135;-87
2024/01/13 07:40:24;;;;;;;;;;;;;;;1.38;63.22;99558.53;4436029;32;34387;-85
2024/01/13 07:42:52;;;;;;;;;;;;;;;1.56;62.46;99554.41;4435925;32;33747;-88
2024/01/13 07:45:19;;;;;;;;;;;;;;;1.35;63.03;99558.34;4421681;32;34948;-86
2024/01/13 07:47:46;;;;;;;;;;;;;;;1.50;62.79;99558.31;4436017;32;33925;-89
2024/01/13 07:50:14;;;;;;;;;;;;;;;0.88;64.95;99557.44;4435860;32;34357;-89
2024/01/13 07:52:41;;;;;;;;;;;;;;;0.88;65.45;99562.53;4435836;32;32756;-88
2024/01/13 07:55:12;;;;;;;;;;;;;;;0.42;66.68;99557.34;4435795;32;34951;-86
2024/01/13 07:57:39;;;;;;;;;;;;;;;1.25;64.48;99562.06;4435836;32;33703;-89
2024/01/13 08:00:06;;;;;;;;;;;;;;;1.23;64.51;99553.44;4421672;32;35025;-89
2024/01/13 08:02:38;;;;;;;;;;;;;;;1.05;65.38;99549.84;4435660;32;33155;-90
2024/01/13 08:05:06;;;;;;;;;;;;;;;0.37;67.22;99551.06;4436084;32;33688;-90
2024/01/13 08:07:33;;;;;;;;;;;;;;;1.01;65.40;99537.72;4435575;32;35324;-88
2024/01/13 08:10:00;;;;;;;;;;;;;;;0.54;66.98;99548.63;4421566;32;35380;-91
2024/01/13 08:12:27;;;;;;;;;;;;;;;0.77;66.44;99545.75;4422044;32;33338;-88
2024/01/13 08:14:55;;;;;;;;;;;;;;;0.68;66.15;99537.53;4435670;32;34575;-90
2024/01/13 08:17:22;;;;;;;;;;;;;;;0.89;65.75;99535.34;4435540;32;35155;-90
2024/01/13 08:19:50;;;;;;;;;;;;;;;0.65;66.46;99537.38;4435575;32;35280;-87
2024/01/13 08:22:17;;;;;;;;;;;;;;;1.11;65.25;99537.44;4435270;32;33134;-89
2024/01/13 08:24:44;;;;;;;;;;;;;;;1.19;65.08;99549.84;4434401;32;33919;-89
2024/01/13 08:27:12;;;;;;;;;;;;;;;0.89;65.82;99555.75;4435381;32;34297;-89
2024/01/13 08:29:39;;;;;;;;;;;;;;;1.04;65.69;99556.63;4435321;32;35090;-88
2024/01/13 08:32:10;;;;;;;;;;;;;;;0.81;66.14;99552.78;4433940;32;33195;-84
2024/01/13 08:34:40;;;;;;;;;;;;;;;0.60;66.60;99551.53;4435161;32;34785;-89
2024/01/13 08:37:08;;;;;;;;;;;;;;;0.29;68.34;99549.72;4435296;32;34812;-86
2024/01/13 08:39:36;;;;;;;;;;;;;;;0.67;67.54;99551.09;4435188;32;34529;-89
2024/01/13 08:42:03;;;;;;;;;;;;;;;0.84;66.63;99545.31;4435306;32;34159;-90
2024/01/13 08:44:31;;;;;;;;;;;;;;;0.58;67.08;99553.13;4434993;32;34142;-89
2024/01/13 08:46:58;;;;;;;;;;;;;;;0.63;67.25;99544.94;4435027;32;34030;-90
2024/01/13 08:49:28;;;;;;;;;;;;;;;0.70;66.32;99551.28;4435384;32;33916;-86
2024/01/13 08:51:56;;;;;;;;;;;;;;;0.66;66.75;99551.91;4437200;32;33891;-85
2024/01/13 08:54:23;;;;;;;;;;;;;;;1.08;65.49;99548.34;4423287;32;33693;-90
2024/01/13 08:56:52;;;;;;;;;;;;;;;0.84;66.47;99552.09;4423304;32;33648;-91
2024/01/13 08:59:19;;;;;;;;;;;;;;;1.28;64.87;99554.56;4437394;32;34493;-89
2024/01/13 09:01:46;;;;;;;;;;;;;;;1.34;64.50;99549.81;4437541;32;33526;-89
2024/01/13 09:04:14;;;;;;;;;;;;;;;0.95;65.52;99553.56;4436997;32;34858;-91
2024/01/13 09:06:41;;;;;;;;;;;;;;;0.94;65.31;99552.66;4436175;32;34785;-88
2024/01/13 09:09:09;;;;;;;;;;;;;;;1.05;65.04;99549.84;4436162;32;35132;-87
2024/01/13 09:11:37;;;;;;;;;;;;;;;0.92;65.70;99550.84;4423371;32;32609;-89
2024/01/13 09:14:10;;;;;;;;;;;;;;;0.39;67.18;99556.28;4435302;32;33773;-91
2024/01/13 09:16:39;;;;;;;;;;;;;;;1.03;65.55;99556.56;4410469;32;33742;-90
2024/01/13 09:19:06;;;;;;;;;;;;;;;0.65;66.33;99561.22;4436505;32;34437;-91
2024/01/13 09:21:34;;;;;;;;;;;;;;;0.50;66.47;99564.56;4436996;32;33994;-91
2024/01/13 09:24:10;;;;;;;;;;;;;;;0.74;66.16;99568.53;4437275;32;34840;-90
2024/01/13 09:26:44;;;;;;;;;;;;;;;1.32;64.54;99571.81;4436732;32;34101;-92
2024/01/13 09:29:16;;;;;;;;;;;;;;;1.41;63.88;99568.91;4436074;32;33563;-87
2024/01/13 09:31:47;;;;;;;;;;;;;;;0.80;65.41;99568.00;4421903;32;33507;-88
2024/01/13 09:34:15;;;;;;;;;;;;;;;0.79;65.33;99568.78;4435796;32;34028;-88
2024/01/13 09:36:44;;;;;;;;;;;;;;;0.57;66.09;99562.47;4423239;32;34452;-88
2024/01/13 09:39:19;;;;;;;;;;;;;;;0.31;66.79;99560.91;4437164;32;34454;-84
2024/01/13 09:41:47;;;;;;;;;;;;;;;0.91;64.79;99546.50;4435918;32;33414;-88
2024/01/13 09:44:19;;;;;;;;;;;;;;;1.23;64.13;99548.34;4436679;32;33748;-87
2024/01/13 09:46:46;;;;;;;;;;;;;;;1.07;64.44;99540.62;4423226;32;34759;-87
2024/01/13 09:49:15;;;;;;;;;;;;;;;1.03;64.84;99534.47;4434626;32;34516;-91
2024/01/13 09:51:42;;;;;;;;;;;;;;;1.46;63.08;99524.91;4407719;32;33958;-88
2024/01/13 09:54:16;;;;;;;;;;;;;;;0.92;64.72;99526.19;4407992;32;33822;-86
2024/01/13 09:56:44;;;;;;;;;;;;;;;0.90;65.02;99516.69;4421603;32;33979;-85
2024/01/13 09:59:12;;;;;;;;;;;;;;;1.44;63.32;99515.44;4422007;32;33976;-88
2024/01/13 10:01:40;;;;;;;;;;;;;;;0.58;65.87;99522.50;4436252;32;34141;-89
2024/01/13 10:04:08;;;;;;;;;;;;;;;1.53;63.42;99512.50;4423153;32;34613;-89
2024/01/13 10:06:35;;;;;;;;;;;;;;;1.54;62.98;99509.12;4435593;32;35027;-90
2024/01/13 10:09:03;;;;;;;;;;;;;;;1.45;63.00;99509.53;4422845;32;34256;-86
2024/01/13 10:11:49;;;;;;;;;;;;;;;1.53;62.50;99507.38;4435983;32;33162;-89
2024/01/13 10:14:17;;;;;;;;;;;;;;;0.80;64.08;99504.22;4422766;32;33429;-91
2024/01/13 10:16:44;;;;;;;;;;;;;;;1.03;64.11;99498.72;4436103;32;34371;-90
2024/01/13 10:19:12;;;;;;;;;;;;;;;1.00;64.01;99518.97;4436804;32;34794;-92
2024/01/13 10:21:40;;;;;;;;;;;;;;;0.58;65.39;99513.19;4436387;32;33906;-87
2024/01/13 10:24:07;;;;;;;;;;;;;;;0.73;65.20;99508.09;4426702;32;34119;-90
2024/01/13 10:26:35;;;;;;;;;;;;;;;0.89;65.08;99515.81;4435397;32;33115;-85
2024/01/13 10:29:03;;;;;;;;;;;;;;;1.23;63.82;99517.69;4422868;32;34512;-91
2024/01/13 10:31:33;;;;;;;;;;;;;;;1.51;62.40;99503.84;4436792;32;33312;-89
2024/01/13 10:34:10;;;;;;;;;;;;;;;0.78;64.55;99511.75;4435578;32;33802;-89
2024/01/13 10:36:38;;;;;;;;;;;;;;;0.76;65.36;99507.34;4435680;32;33351;-89
2024/01/13 10:39:07;;;;;;;;;;;;;;;0.91;64.90;99508.22;4437087;32;34096;-90
2024/01/13 10:41:35;;;;;;;;;;;;;;;0.96;64.37;99496.59;4423021;32;33633;-90
2024/01/13 10:44:04;;;;;;;;;;;;;;;1.54;62.64;99483.56;4436547;32;33183;-89
2024/01/13 10:46:31;;;;;;;;;;;;;;;0.89;64.31;99479.19;4422561;32;34274;-89
2024/01/13 10:49:02;;;;;;;;;;;;;;;1.31;63.52;99474.69;4436601;32;34524;-86
2024/01/13 10:51:42;;;;;;;;;;;;;;;1.34;62.91;99480.84;4422894;32;34258;-89
2024/01/13 10:54:10;;;;;;;;;;;;;;;1.00;63.88;99473.00;4423254;32;33661;-90
2024/01/13 10:56:37;;;;;;;;;;;;;;;0.95;64.14;99477.00;4410013;32;34084;-92
2024/01/13 10:59:05;;;;;;;;;;;;;;;0.66;65.11;99463.47;4422500;32;34319;-92
2024/01/13 11:01:32;;;;;;;;;;;;;;;1.34;63.58;99475.72;4422581;32;34057;-90
2024/01/13 11:04:01;;;;;;;;;;;;;;;1.53;62.45;99463.94;4409845;32;33096;-89
2024/01/13 11:06:29;;;;;;;;;;;;;;;1.43;62.41;99468.53;4422225;32;33904;-89
2024/01/13 11:08:57;;;;;;;;;;;;;;;1.66;62.32;99471.44;4436616;32;35097;-91
2024/01/13 11:11:25;;;;;;;;;;;;;;;1.81;61.98;99461.16;4409549;32;33312;-92
2024/01/13 11:14:06;;;;;;;;;;;;;;;1.92;61.14;99449.78;4410782;32;33148;-92
2024/01/13 11:16:34;;;;;;;;;;;;;;;1.84;61.27;99458.75;4422950;32;33859;-92
2024/01/13 11:19:01;;;;;;;;;;;;;;;1.32;62.66;99456.00;4408935;32;33513;-92
2024/01/13 11:21:30;;;;;;;;;;;;;;;1.28;63.19;99454.94;4409274;32;32489;-91
2024/01/13 11:24:14;;;;;;;;;;;;;;;1.67;61.86;99452.78;4424366;32;34172;-93
2024/01/13 11:26:43;;;;;;;;;;;;;;;1.35;62.77;99445.94;4422773;32;34056;-92
2024/01/13 11:29:15;;;;;;;;;;;;;;;1.05;63.46;99447.72;4435974;32;35151;-91
2024/01/13 11:31:44;;;;;;;;;;;;;;;1.41;62.74;99436.94;4434293;32;32727;-90
2024/01/13 11:34:16;;;;;;;;;;;;;;;0.97;63.41;99430.31;4435984;32;34110;-92
2024/01/13 11:36:50;;;;;;;;;;;;;;;1.39;63.07;99427.44;4397455;32;33606;-91
2024/01/13 11:39:18;;;;;;;;;;;;;;;2.02;60.94;99417.91;4408271;32;33671;-92
2024/01/13 11:41:49;;;;;;;;;;;;;;;1.84;60.97;99412.75;4401381;32;33425;-92
2024/01/13 11:44:18;;;;;;;;;;;;;;;2.08;60.38;99406.28;4409161;32;33314;-92
2024/01/13 11:47:05;;;;;;;;;;;;;;;2.15;59.92;99408.34;4409319;32;33166;-93
2024/01/13 11:49:33;;;;;;;;;;;;;;;1.26;62.06;99408.03;4435833;32;34275;-90
2024/01/13 11:52:01;;;;;;;;;;;;;;;1.73;61.40;99399.41;4436076;32;33624;-88
2024/01/13 11:54:30;;;;;;;;;;;;;;;1.38;61.97;99388.25;4434544;32;33865;-92
2024/01/13 11:56:58;;;;;;;;;;;;;;;1.18;62.69;99394.00;4434516;32;34061;-89
2024/01/13 11:59:26;;;;;;;;;;;;;;;1.54;61.73;99386.47;4409267;32;32659;-92
2024/01/13 12:01:53;;;;;;;;;;;;;;;1.42;61.82;99387.59;4421791;32;32863;-92
2024/01/13 12:04:27;;;;;;;;;;;;;;;1.68;61.29;99381.28;4422081;32;33827;-90
2024/01/13 12:06:56;;;;;;;;;;;;;;;1.50;61.50;99384.56;4422305;32;33764;-92
2024/01/13 12:09:27;;;;;;;;;;;;;;;1.69;60.53;99372.81;4433180;32;33466;-91
2024/01/13 12:11:58;;;;;;;;;;;;;;;1.60;60.69;99366.38;4425643;32;33244;-91
2024/01/13 12:14:28;;;;;;;;;;;;;;;1.88;59.81;99366.06;4420636;32;34163;-88
2024/01/13 12:16:56;;;;;;;;;;;;;;;2.05;59.13;99351.59;4421452;32;34525;-91
2024/01/13 12:19:26;;;;;;;;;;;;;;;2.14;59.12;99358.00;4421286;32;34480;-89
2024/01/13 12:21:53;;;;;;;;;;;;;;;2.14;59.08;99352.91;4434326;32;33482;-86
2024/01/13 12:24:28;;;;;;;;;;;;;;;2.41;58.47;99357.59;4431848;32;33395;-91
2024/01/13 12:26:56;;;;;;;;;;;;;;;2.46;58.81;99353.56;4434060;32;34318;-91
2024/01/13 12:29:30;;;;;;;;;;;;;;;2.26;59.52;99344.06;4432862;32;34723;-91
2024/01/13 12:31:58;;;;;;;;;;;;;;;2.59;57.92;99337.13;4431941;32;32778;-93
2024/01/13 12:34:27;;;;;;;;;;;;;;;2.08;59.21;99347.47;4438454;32;34345;-93
2024/01/13 12:36:55;;;;;;;;;;;;;;;1.79;60.13;99347.75;4436121;32;33733;-86
2024/01/13 12:39:22;;;;;;;;;;;;;;;2.02;59.26;99338.66;4422780;32;34445;-88
2024/01/13 12:41:50;;;;;;;;;;;;;;;2.05;59.42;99338.81;4424151;32;33946;-93
2024/01/13 12:44:26;;;;;;;;;;;;;;;1.84;60.08;99339.47;4419753;32;33990;-87
2024/01/13 12:46:57;;;;;;;;;;;;;;;2.03;59.91;99340.41;4435934;32;33984;-86
2024/01/13 12:49:24;;;;;;;;;;;;;;;1.82;60.35;99333.44;4423835;32;33437;-93
2024/01/13 12:51:54;;;;;;;;;;;;;;;1.75;60.19;99327.94;4423934;32;32639;-87
2024/01/13 12:54:22;;;;;;;;;;;;;;;2.03;60.08;99337.84;4422244;32;33924;-89
2024/01/13 12:56:50;;;;;;;;;;;;;;;2.03;59.32;99332.72;4433464;32;34009;-90
2024/01/13 12:59:18;;;;;;;;;;;;;;;2.14;59.64;99340.13;4433091;32;34484;-92
2024/01/13 13:01:46;;;;;;;;;;;;;;;2.33;58.66;99334.19;4436454;32;33565;-87